sensor_id;sensor_type;location;lat;lon;timestamp;P1;durP1;ratioP1;P2;durP2;ratioP2
20890;SDS011;10605;52.968;8.844;2023-04-15T00:01:18;13.50;;;11.63;;
20890;SDS011;10605;52.968;8.844;2023-04-15T00:03:43;12.82;;;11.57;;
20890;SDS011;10605;52.968;8.844;2023-04-15T00:06:10;14.43;;;11.05;;
20890;SDS011;10605;52.968;8.844;2023-04-15T00:08:36;12.05;;;10.85;;
20890;SDS011;10605;52.968;8.844;2023-04-15T00:11:02;12.45;;;11.35;;
20890;SDS011;10605;52.968;8.844;2023-04-15T00:13:29;12.45;;;11.20;;
20890;SDS011;10605;52.968;8.844;2023-04-15T00:15:56;13.15;;;11.82;;
20890;SDS011;10605;52.968;8.844;2023-04-15T00:18:23;14.75;;;11.73;;
20890;SDS011;10605;52.968;8.844;2023-04-15T00:20:48;12.45;;;11.02;;
20890;SDS011;10605;52.968;8.844;2023-04-15T00:23:14;16.88;;;12.32;;
20890;SDS011;10605;52.968;8.844;2023-04-15T00:25:39;14.70;;;12.15;;
20890;SDS011;10605;52.968;8.844;2023-04-15T00:28:05;18.23;;;13.13;;
20890;SDS011;10605;52.968;8.844;2023-04-15T00:30:31;13.18;;;11.77;;
20890;SDS011;10605;52.968;8.844;2023-04-15T00:32:57;13.23;;;11.65;;
20890;SDS011;10605;52.968;8.844;2023-04-15T00:35:23;12.93;;;11.70;;
20890;SDS011;10605;52.968;8.844;2023-04-15T00:37:48;14.55;;;11.95;;
20890;SDS011;10605;52.968;8.844;2023-04-15T00:40:15;19.48;;;13.10;;
20890;SDS011;10605;52.968;8.844;2023-04-15T00:42:43;17.95;;;13.82;;
20890;SDS011;10605;52.968;8.844;2023-04-15T00:45:09;15.43;;;13.85;;
20890;SDS011;10605;52.968;8.844;2023-04-15T00:47:36;16.70;;;14.23;;
20890;SDS011;10605;52.968;8.844;2023-04-15T00:50:03;17.45;;;14.70;;
20890;SDS011;10605;52.968;8.844;2023-04-15T00:52:29;19.17;;;14.73;;
20890;SDS011;10605;52.968;8.844;2023-04-15T00:54:56;21.98;;;14.75;;
20890;SDS011;10605;52.968;8.844;2023-04-15T00:57:21;18.10;;;15.15;;
20890;SDS011;10605;52.968;8.844;2023-04-15T00:59:47;16.67;;;14.85;;
20890;SDS011;10605;52.968;8.844;2023-04-15T01:02:13;18.00;;;14.93;;
20890;SDS011;10605;52.968;8.844;2023-04-15T01:04:39;21.85;;;16.15;;
20890;SDS011;10605;52.968;8.844;2023-04-15T01:07:05;24.35;;;15.80;;
20890;SDS011;10605;52.968;8.844;2023-04-15T01:09:31;19.98;;;15.95;;
20890;SDS011;10605;52.968;8.844;2023-04-15T01:11:58;20.55;;;15.32;;
20890;SDS011;10605;52.968;8.844;2023-04-15T01:14:24;18.10;;;14.82;;
20890;SDS011;10605;52.968;8.844;2023-04-15T01:16:49;20.05;;;15.30;;
20890;SDS011;10605;52.968;8.844;2023-04-15T01:19:17;20.88;;;16.33;;
20890;SDS011;10605;52.968;8.844;2023-04-15T01:21:43;16.92;;;15.07;;
20890;SDS011;10605;52.968;8.844;2023-04-15T01:24:09;18.75;;;15.25;;
20890;SDS011;10605;52.968;8.844;2023-04-15T01:26:38;22.48;;;15.70;;
20890;SDS011;10605;52.968;8.844;2023-04-15T01:29:05;22.13;;;16.10;;
20890;SDS011;10605;52.968;8.844;2023-04-15T01:31:30;18.98;;;15.82;;
20890;SDS011;10605;52.968;8.844;2023-04-15T01:33:56;23.75;;;17.08;;
20890;SDS011;10605;52.968;8.844;2023-04-15T01:36:22;19.77;;;15.57;;
20890;SDS011;10605;52.968;8.844;2023-04-15T01:38:48;21.75;;;15.60;;
20890;SDS011;10605;52.968;8.844;2023-04-15T01:41:15;19.23;;;15.75;;
20890;SDS011;10605;52.968;8.844;2023-04-15T01:43:41;20.38;;;15.18;;
20890;SDS011;10605;52.968;8.844;2023-04-15T01:46:06;21.40;;;16.33;;
20890;SDS011;10605;52.968;8.844;2023-04-15T01:48:32;19.77;;;15.68;;
20890;SDS011;10605;52.968;8.844;2023-04-15T01:50:58;22.35;;;16.27;;
20890;SDS011;10605;52.968;8.844;2023-04-15T01:53:24;21.88;;;16.15;;
20890;SDS011;10605;52.968;8.844;2023-04-15T01:55:50;21.65;;;15.85;;
20890;SDS011;10605;52.968;8.844;2023-04-15T01:58:16;23.25;;;16.67;;
20890;SDS011;10605;52.968;8.844;2023-04-15T02:00:42;19.10;;;16.05;;
20890;SDS011;10605;52.968;8.844;2023-04-15T02:03:09;23.00;;;17.65;;
20890;SDS011;10605;52.968;8.844;2023-04-15T02:05:35;22.48;;;17.23;;
20890;SDS011;10605;52.968;8.844;2023-04-15T02:08:00;25.13;;;17.10;;
20890;SDS011;10605;52.968;8.844;2023-04-15T02:10:26;22.95;;;17.35;;
20890;SDS011;10605;52.968;8.844;2023-04-15T02:12:52;21.85;;;17.20;;
20890;SDS011;10605;52.968;8.844;2023-04-15T02:15:18;23.08;;;17.73;;
20890;SDS011;10605;52.968;8.844;2023-04-15T02:17:44;24.70;;;17.45;;
20890;SDS011;10605;52.968;8.844;2023-04-15T02:20:14;23.65;;;17.85;;
20890;SDS011;10605;52.968;8.844;2023-04-15T02:22:41;25.98;;;18.98;;
20890;SDS011;10605;52.968;8.844;2023-04-15T02:25:07;28.27;;;18.45;;
20890;SDS011;10605;52.968;8.844;2023-04-15T02:27:34;24.92;;;18.85;;
20890;SDS011;10605;52.968;8.844;2023-04-15T02:30:00;26.65;;;17.60;;
20890;SDS011;10605;52.968;8.844;2023-04-15T02:32:26;22.92;;;18.15;;
20890;SDS011;10605;52.968;8.844;2023-04-15T02:34:52;24.73;;;17.77;;
20890;SDS011;10605;52.968;8.844;2023-04-15T02:37:18;22.75;;;17.65;;
20890;SDS011;10605;52.968;8.844;2023-04-15T02:39:45;25.20;;;18.30;;
20890;SDS011;10605;52.968;8.844;2023-04-15T02:42:10;22.90;;;17.77;;
20890;SDS011;10605;52.968;8.844;2023-04-15T02:44:37;22.13;;;17.63;;
20890;SDS011;10605;52.968;8.844;2023-04-15T02:47:03;23.05;;;18.30;;
20890;SDS011;10605;52.968;8.844;2023-04-15T02:49:31;24.70;;;17.83;;
20890;SDS011;10605;52.968;8.844;2023-04-15T02:51:56;21.73;;;17.60;;
20890;SDS011;10605;52.968;8.844;2023-04-15T02:54:24;27.38;;;17.95;;
20890;SDS011;10605;52.968;8.844;2023-04-15T02:56:52;25.33;;;18.23;;
20890;SDS011;10605;52.968;8.844;2023-04-15T02:59:20;23.38;;;19.15;;
20890;SDS011;10605;52.968;8.844;2023-04-15T03:01:46;22.15;;;17.42;;
20890;SDS011;10605;52.968;8.844;2023-04-15T03:04:11;23.63;;;17.92;;
20890;SDS011;10605;52.968;8.844;2023-04-15T03:06:38;24.15;;;17.30;;
20890;SDS011;10605;52.968;8.844;2023-04-15T03:09:04;21.83;;;17.90;;
20890;SDS011;10605;52.968;8.844;2023-04-15T03:11:29;23.60;;;16.75;;
20890;SDS011;10605;52.968;8.844;2023-04-15T03:13:55;20.95;;;16.63;;
20890;SDS011;10605;52.968;8.844;2023-04-15T03:16:22;19.00;;;15.05;;
20890;SDS011;10605;52.968;8.844;2023-04-15T03:18:48;23.58;;;15.88;;
20890;SDS011;10605;52.968;8.844;2023-04-15T03:21:14;18.90;;;14.98;;
20890;SDS011;10605;52.968;8.844;2023-04-15T03:23:40;20.77;;;14.40;;
20890;SDS011;10605;52.968;8.844;2023-04-15T03:26:05;16.88;;;13.65;;
20890;SDS011;10605;52.968;8.844;2023-04-15T03:28:31;15.95;;;13.38;;
20890;SDS011;10605;52.968;8.844;2023-04-15T03:30:57;17.58;;;14.15;;
20890;SDS011;10605;52.968;8.844;2023-04-15T03:33:23;21.17;;;14.48;;
20890;SDS011;10605;52.968;8.844;2023-04-15T03:35:49;17.70;;;13.98;;
20890;SDS011;10605;52.968;8.844;2023-04-15T03:38:15;21.27;;;14.75;;
20890;SDS011;10605;52.968;8.844;2023-04-15T03:40:41;19.17;;;15.32;;
20890;SDS011;10605;52.968;8.844;2023-04-15T03:43:07;24.42;;;16.90;;
20890;SDS011;10605;52.968;8.844;2023-04-15T03:45:32;19.65;;;16.58;;
20890;SDS011;10605;52.968;8.844;2023-04-15T03:47:58;21.67;;;18.08;;
20890;SDS011;10605;52.968;8.844;2023-04-15T03:50:24;25.58;;;19.45;;
20890;SDS011;10605;52.968;8.844;2023-04-15T03:52:50;23.73;;;18.55;;
20890;SDS011;10605;52.968;8.844;2023-04-15T03:55:15;24.20;;;18.23;;
20890;SDS011;10605;52.968;8.844;2023-04-15T03:57:41;25.00;;;18.60;;
20890;SDS011;10605;52.968;8.844;2023-04-15T04:00:07;25.52;;;18.65;;
20890;SDS011;10605;52.968;8.844;2023-04-15T04:02:34;24.65;;;17.98;;
20890;SDS011;10605;52.968;8.844;2023-04-15T04:05:00;21.65;;;18.30;;
20890;SDS011;10605;52.968;8.844;2023-04-15T04:07:26;23.13;;;18.33;;
20890;SDS011;10605;52.968;8.844;2023-04-15T04:09:51;20.77;;;17.17;;
20890;SDS011;10605;52.968;8.844;2023-04-15T04:12:17;22.02;;;17.80;;
20890;SDS011;10605;52.968;8.844;2023-04-15T04:14:42;23.20;;;18.13;;
20890;SDS011;10605;52.968;8.844;2023-04-15T04:17:08;23.73;;;17.92;;
20890;SDS011;10605;52.968;8.844;2023-04-15T04:19:34;23.80;;;18.30;;
20890;SDS011;10605;52.968;8.844;2023-04-15T04:22:00;21.50;;;17.17;;
20890;SDS011;10605;52.968;8.844;2023-04-15T04:24:25;25.33;;;17.17;;
20890;SDS011;10605;52.968;8.844;2023-04-15T04:26:51;24.17;;;17.73;;
20890;SDS011;10605;52.968;8.844;2023-04-15T04:29:17;21.27;;;17.02;;
20890;SDS011;10605;52.968;8.844;2023-04-15T04:31:42;21.80;;;17.40;;
20890;SDS011;10605;52.968;8.844;2023-04-15T04:34:08;23.40;;;17.70;;
20890;SDS011;10605;52.968;8.844;2023-04-15T04:36:33;21.95;;;17.35;;
20890;SDS011;10605;52.968;8.844;2023-04-15T04:38:59;20.33;;;16.80;;
20890;SDS011;10605;52.968;8.844;2023-04-15T04:41:25;23.30;;;16.92;;
20890;SDS011;10605;52.968;8.844;2023-04-15T04:43:51;23.05;;;17.75;;
20890;SDS011;10605;52.968;8.844;2023-04-15T04:46:17;22.25;;;18.50;;
20890;SDS011;10605;52.968;8.844;2023-04-15T04:48:42;22.48;;;17.45;;
20890;SDS011;10605;52.968;8.844;2023-04-15T04:51:08;25.20;;;18.35;;
20890;SDS011;10605;52.968;8.844;2023-04-15T04:53:34;26.38;;;18.70;;
20890;SDS011;10605;52.968;8.844;2023-04-15T04:56:01;27.13;;;19.33;;
20890;SDS011;10605;52.968;8.844;2023-04-15T04:58:27;27.15;;;20.33;;
20890;SDS011;10605;52.968;8.844;2023-04-15T05:00:53;27.27;;;19.92;;
20890;SDS011;10605;52.968;8.844;2023-04-15T05:03:18;28.83;;;20.77;;
20890;SDS011;10605;52.968;8.844;2023-04-15T05:05:44;30.05;;;20.88;;
20890;SDS011;10605;52.968;8.844;2023-04-15T05:08:10;33.83;;;22.35;;
20890;SDS011;10605;52.968;8.844;2023-04-15T05:10:36;31.50;;;22.42;;
20890;SDS011;10605;52.968;8.844;2023-04-15T05:13:01;31.70;;;22.25;;
20890;SDS011;10605;52.968;8.844;2023-04-15T05:15:27;33.50;;;23.40;;
20890;SDS011;10605;52.968;8.844;2023-04-15T05:17:53;32.20;;;22.63;;
20890;SDS011;10605;52.968;8.844;2023-04-15T05:20:19;31.25;;;23.23;;
20890;SDS011;10605;52.968;8.844;2023-04-15T05:22:44;32.00;;;21.90;;
20890;SDS011;10605;52.968;8.844;2023-04-15T05:25:10;38.85;;;22.90;;
20890;SDS011;10605;52.968;8.844;2023-04-15T05:27:36;34.33;;;23.75;;
20890;SDS011;10605;52.968;8.844;2023-04-15T05:30:02;31.95;;;22.98;;
20890;SDS011;10605;52.968;8.844;2023-04-15T05:32:28;34.28;;;22.55;;
20890;SDS011;10605;52.968;8.844;2023-04-15T05:34:53;32.72;;;23.15;;
20890;SDS011;10605;52.968;8.844;2023-04-15T05:37:19;32.80;;;23.95;;
20890;SDS011;10605;52.968;8.844;2023-04-15T05:39:45;35.58;;;23.67;;
20890;SDS011;10605;52.968;8.844;2023-04-15T05:42:11;33.70;;;23.30;;
20890;SDS011;10605;52.968;8.844;2023-04-15T05:44:36;34.63;;;22.73;;
20890;SDS011;10605;52.968;8.844;2023-04-15T05:47:02;32.60;;;24.50;;
20890;SDS011;10605;52.968;8.844;2023-04-15T05:49:28;32.13;;;23.30;;
20890;SDS011;10605;52.968;8.844;2023-04-15T05:51:54;34.50;;;24.70;;
20890;SDS011;10605;52.968;8.844;2023-04-15T05:54:20;35.25;;;23.58;;
20890;SDS011;10605;52.968;8.844;2023-04-15T05:56:48;29.58;;;23.02;;
20890;SDS011;10605;52.968;8.844;2023-04-15T05:59:14;30.95;;;22.42;;
20890;SDS011;10605;52.968;8.844;2023-04-15T06:01:45;30.83;;;22.00;;
20890;SDS011;10605;52.968;8.844;2023-04-15T06:04:14;28.55;;;21.58;;
20890;SDS011;10605;52.968;8.844;2023-04-15T06:06:39;29.35;;;22.20;;
20890;SDS011;10605;52.968;8.844;2023-04-15T06:09:05;27.83;;;21.83;;
20890;SDS011;10605;52.968;8.844;2023-04-15T06:11:31;30.67;;;21.17;;
20890;SDS011;10605;52.968;8.844;2023-04-15T06:13:57;29.20;;;20.67;;
20890;SDS011;10605;52.968;8.844;2023-04-15T06:16:23;29.88;;;20.45;;
20890;SDS011;10605;52.968;8.844;2023-04-15T06:18:48;24.58;;;20.80;;
20890;SDS011;10605;52.968;8.844;2023-04-15T06:21:14;25.30;;;20.30;;
20890;SDS011;10605;52.968;8.844;2023-04-15T06:23:40;25.58;;;20.52;;
20890;SDS011;10605;52.968;8.844;2023-04-15T06:26:06;28.75;;;20.25;;
20890;SDS011;10605;52.968;8.844;2023-04-15T06:28:32;24.98;;;19.63;;
20890;SDS011;10605;52.968;8.844;2023-04-15T06:30:57;24.70;;;20.70;;
20890;SDS011;10605;52.968;8.844;2023-04-15T06:33:23;27.38;;;20.40;;
20890;SDS011;10605;52.968;8.844;2023-04-15T06:35:49;24.55;;;19.90;;
20890;SDS011;10605;52.968;8.844;2023-04-15T06:38:15;28.52;;;20.60;;
20890;SDS011;10605;52.968;8.844;2023-04-15T06:40:40;23.27;;;20.13;;
20890;SDS011;10605;52.968;8.844;2023-04-15T06:43:06;28.05;;;19.25;;
20890;SDS011;10605;52.968;8.844;2023-04-15T06:45:33;24.83;;;19.50;;
20890;SDS011;10605;52.968;8.844;2023-04-15T06:47:58;24.40;;;18.83;;
20890;SDS011;10605;52.968;8.844;2023-04-15T06:50:24;23.13;;;19.33;;
20890;SDS011;10605;52.968;8.844;2023-04-15T06:52:50;25.02;;;19.98;;
20890;SDS011;10605;52.968;8.844;2023-04-15T06:55:15;22.27;;;18.88;;
20890;SDS011;10605;52.968;8.844;2023-04-15T06:57:41;23.70;;;18.67;;
20890;SDS011;10605;52.968;8.844;2023-04-15T07:00:07;22.63;;;18.42;;
20890;SDS011;10605;52.968;8.844;2023-04-15T07:02:35;22.77;;;19.52;;
20890;SDS011;10605;52.968;8.844;2023-04-15T07:05:00;23.50;;;19.05;;
20890;SDS011;10605;52.968;8.844;2023-04-15T07:07:29;24.33;;;19.02;;
20890;SDS011;10605;52.968;8.844;2023-04-15T07:09:58;22.75;;;18.88;;
20890;SDS011;10605;52.968;8.844;2023-04-15T07:12:31;23.35;;;19.45;;
20890;SDS011;10605;52.968;8.844;2023-04-15T07:14:56;23.65;;;19.65;;
20890;SDS011;10605;52.968;8.844;2023-04-15T07:17:22;22.60;;;18.20;;
20890;SDS011;10605;52.968;8.844;2023-04-15T07:19:48;22.08;;;19.42;;
20890;SDS011;10605;52.968;8.844;2023-04-15T07:22:13;21.02;;;18.55;;
20890;SDS011;10605;52.968;8.844;2023-04-15T07:24:39;22.33;;;18.98;;
20890;SDS011;10605;52.968;8.844;2023-04-15T07:27:05;21.40;;;17.98;;
20890;SDS011;10605;52.968;8.844;2023-04-15T07:29:31;20.80;;;17.65;;
20890;SDS011;10605;52.968;8.844;2023-04-15T07:31:57;19.83;;;17.73;;
20890;SDS011;10605;52.968;8.844;2023-04-15T07:34:22;18.63;;;16.42;;
20890;SDS011;10605;52.968;8.844;2023-04-15T07:36:48;19.75;;;17.67;;
20890;SDS011;10605;52.968;8.844;2023-04-15T07:39:17;18.25;;;16.33;;
20890;SDS011;10605;52.968;8.844;2023-04-15T07:41:43;18.42;;;16.45;;
20890;SDS011;10605;52.968;8.844;2023-04-15T07:44:08;17.45;;;15.65;;
20890;SDS011;10605;52.968;8.844;2023-04-15T07:46:34;16.13;;;14.63;;
20890;SDS011;10605;52.968;8.844;2023-04-15T07:49:01;17.08;;;15.02;;
20890;SDS011;10605;52.968;8.844;2023-04-15T07:51:26;15.73;;;14.25;;
20890;SDS011;10605;52.968;8.844;2023-04-15T07:53:53;15.77;;;14.27;;
20890;SDS011;10605;52.968;8.844;2023-04-15T07:56:19;15.00;;;13.50;;
20890;SDS011;10605;52.968;8.844;2023-04-15T07:58:45;15.45;;;13.95;;
20890;SDS011;10605;52.968;8.844;2023-04-15T08:01:11;15.13;;;13.80;;
20890;SDS011;10605;52.968;8.844;2023-04-15T08:03:37;15.70;;;14.07;;
20890;SDS011;10605;52.968;8.844;2023-04-15T08:06:03;15.73;;;14.10;;
20890;SDS011;10605;52.968;8.844;2023-04-15T08:08:29;14.63;;;13.32;;
20890;SDS011;10605;52.968;8.844;2023-04-15T08:10:55;13.93;;;12.75;;
20890;SDS011;10605;52.968;8.844;2023-04-15T08:13:21;14.50;;;13.20;;
20890;SDS011;10605;52.968;8.844;2023-04-15T08:15:52;14.27;;;12.98;;
20890;SDS011;10605;52.968;8.844;2023-04-15T08:18:38;13.10;;;12.07;;
20890;SDS011;10605;52.968;8.844;2023-04-15T08:21:04;12.68;;;11.77;;
20890;SDS011;10605;52.968;8.844;2023-04-15T08:23:30;12.70;;;11.63;;
20890;SDS011;10605;52.968;8.844;2023-04-15T08:25:57;12.07;;;11.18;;
20890;SDS011;10605;52.968;8.844;2023-04-15T08:28:23;12.98;;;11.88;;
20890;SDS011;10605;52.968;8.844;2023-04-15T08:30:48;12.55;;;11.65;;
20890;SDS011;10605;52.968;8.844;2023-04-15T08:33:14;12.95;;;11.95;;
20890;SDS011;10605;52.968;8.844;2023-04-15T08:35:40;13.02;;;12.02;;
20890;SDS011;10605;52.968;8.844;2023-04-15T08:38:06;13.57;;;12.45;;
20890;SDS011;10605;52.968;8.844;2023-04-15T08:40:34;12.00;;;11.10;;
20890;SDS011;10605;52.968;8.844;2023-04-15T08:43:10;10.98;;;10.18;;
20890;SDS011;10605;52.968;8.844;2023-04-15T08:45:39;10.75;;;10.15;;
20890;SDS011;10605;52.968;8.844;2023-04-15T08:48:06;12.18;;;11.27;;
20890;SDS011;10605;52.968;8.844;2023-04-15T08:50:36;12.00;;;11.10;;
20890;SDS011;10605;52.968;8.844;2023-04-15T08:53:02;11.05;;;10.30;;
20890;SDS011;10605;52.968;8.844;2023-04-15T08:55:29;10.38;;;9.65;;
20890;SDS011;10605;52.968;8.844;2023-04-15T08:58:03;11.27;;;10.48;;
20890;SDS011;10605;52.968;8.844;2023-04-15T09:00:29;10.38;;;9.68;;
20890;SDS011;10605;52.968;8.844;2023-04-15T09:02:57;10.63;;;9.82;;
20890;SDS011;10605;52.968;8.844;2023-04-15T09:05:26;11.00;;;10.20;;
20890;SDS011;10605;52.968;8.844;2023-04-15T09:11:45;9.25;;;8.65;;
20890;SDS011;10605;52.968;8.844;2023-04-15T09:14:17;9.52;;;8.93;;
20890;SDS011;10605;52.968;8.844;2023-04-15T09:16:55;9.73;;;9.13;;
20890;SDS011;10605;52.968;8.844;2023-04-15T09:19:22;9.70;;;9.10;;
20890;SDS011;10605;52.968;8.844;2023-04-15T09:21:49;10.13;;;9.43;;
20890;SDS011;10605;52.968;8.844;2023-04-15T09:24:17;9.82;;;9.13;;
20890;SDS011;10605;52.968;8.844;2023-04-15T09:26:43;10.52;;;9.70;;
20890;SDS011;10605;52.968;8.844;2023-04-15T09:29:09;9.98;;;9.30;;
20890;SDS011;10605;52.968;8.844;2023-04-15T09:31:37;9.75;;;9.15;;
20890;SDS011;10605;52.968;8.844;2023-04-15T09:34:04;10.27;;;9.52;;
20890;SDS011;10605;52.968;8.844;2023-04-15T09:36:52;9.90;;;9.20;;
20890;SDS011;10605;52.968;8.844;2023-04-15T09:39:20;10.23;;;9.52;;
20890;SDS011;10605;52.968;8.844;2023-04-15T09:41:51;10.20;;;9.50;;
20890;SDS011;10605;52.968;8.844;2023-04-15T09:44:31;10.35;;;9.55;;
20890;SDS011;10605;52.968;8.844;2023-04-15T09:46:57;13.43;;;12.23;;
20890;SDS011;10605;52.968;8.844;2023-04-15T09:49:23;22.05;;;17.77;;
20890;SDS011;10605;52.968;8.844;2023-04-15T09:51:48;18.05;;;15.18;;
20890;SDS011;10605;52.968;8.844;2023-04-15T09:54:18;18.40;;;16.27;;
20890;SDS011;10605;52.968;8.844;2023-04-15T09:56:47;11.50;;;10.63;;
20890;SDS011;10605;52.968;8.844;2023-04-15T09:59:13;11.40;;;10.50;;
20890;SDS011;10605;52.968;8.844;2023-04-15T10:01:39;11.52;;;10.63;;
20890;SDS011;10605;52.968;8.844;2023-04-15T10:04:06;11.27;;;10.23;;
20890;SDS011;10605;52.968;8.844;2023-04-15T10:06:33;9.93;;;9.23;;
20890;SDS011;10605;52.968;8.844;2023-04-15T10:09:00;10.30;;;9.60;;
20890;SDS011;10605;52.968;8.844;2023-04-15T10:11:29;10.73;;;9.70;;
20890;SDS011;10605;52.968;8.844;2023-04-15T10:13:56;10.02;;;9.25;;
20890;SDS011;10605;52.968;8.844;2023-04-15T10:16:22;9.82;;;9.18;;
20890;SDS011;10605;52.968;8.844;2023-04-15T10:18:56;9.90;;;9.20;;
20890;SDS011;10605;52.968;8.844;2023-04-15T10:21:22;11.35;;;10.35;;
20890;SDS011;10605;52.968;8.844;2023-04-15T10:23:49;10.25;;;9.52;;
20890;SDS011;10605;52.968;8.844;2023-04-15T10:26:15;9.82;;;9.13;;
20890;SDS011;10605;52.968;8.844;2023-04-15T10:28:42;10.38;;;9.48;;
20890;SDS011;10605;52.968;8.844;2023-04-15T10:31:13;10.45;;;9.65;;
20890;SDS011;10605;52.968;8.844;2023-04-15T10:33:41;9.18;;;8.57;;
20890;SDS011;10605;52.968;8.844;2023-04-15T10:36:08;10.38;;;9.35;;
20890;SDS011;10605;52.968;8.844;2023-04-15T10:38:38;9.70;;;9.00;;
20890;SDS011;10605;52.968;8.844;2023-04-15T10:46:35;11.63;;;10.57;;
20890;SDS011;10605;52.968;8.844;2023-04-15T10:49:10;11.10;;;10.20;;
20890;SDS011;10605;52.968;8.844;2023-04-15T10:51:38;11.80;;;10.80;;
20890;SDS011;10605;52.968;8.844;2023-04-15T10:54:11;12.30;;;11.15;;
20890;SDS011;10605;52.968;8.844;2023-04-15T10:56:42;10.88;;;10.07;;
20890;SDS011;10605;52.968;8.844;2023-04-15T10:59:08;13.75;;;11.38;;
20890;SDS011;10605;52.968;8.844;2023-04-15T11:01:50;12.40;;;11.27;;
20890;SDS011;10605;52.968;8.844;2023-04-15T11:08:03;12.63;;;11.43;;
20890;SDS011;10605;52.968;8.844;2023-04-15T11:12:36;12.38;;;11.27;;
20890;SDS011;10605;52.968;8.844;2023-04-15T11:20:45;12.07;;;10.98;;
20890;SDS011;10605;52.968;8.844;2023-04-15T11:23:12;11.60;;;10.40;;
20890;SDS011;10605;52.968;8.844;2023-04-15T11:25:44;12.40;;;11.20;;
20890;SDS011;10605;52.968;8.844;2023-04-15T11:28:10;13.10;;;11.70;;
20890;SDS011;10605;52.968;8.844;2023-04-15T11:30:36;13.23;;;11.82;;
20890;SDS011;10605;52.968;8.844;2023-04-15T11:33:03;13.35;;;11.88;;
20890;SDS011;10605;52.968;8.844;2023-04-15T11:35:32;13.57;;;12.07;;
20890;SDS011;10605;52.968;8.844;2023-04-15T11:38:02;13.95;;;11.50;;
20890;SDS011;10605;52.968;8.844;2023-04-15T11:40:36;14.68;;;13.18;;
20890;SDS011;10605;52.968;8.844;2023-04-15T11:43:03;14.63;;;11.80;;
20890;SDS011;10605;52.968;8.844;2023-04-15T11:45:35;13.65;;;12.25;;
20890;SDS011;10605;52.968;8.844;2023-04-15T11:48:08;20.40;;;14.23;;
20890;SDS011;10605;52.968;8.844;2023-04-15T11:50:35;19.73;;;14.85;;
20890;SDS011;10605;52.968;8.844;2023-04-15T11:53:04;20.30;;;15.60;;
20890;SDS011;10605;52.968;8.844;2023-04-15T11:55:39;19.02;;;14.68;;
20890;SDS011;10605;52.968;8.844;2023-04-15T12:00:45;26.45;;;16.55;;
20890;SDS011;10605;52.968;8.844;2023-04-15T12:13:58;22.38;;;17.35;;
20890;SDS011;10605;52.968;8.844;2023-04-15T12:16:32;27.00;;;18.15;;
20890;SDS011;10605;52.968;8.844;2023-04-15T12:19:04;31.30;;;19.10;;
20890;SDS011;10605;52.968;8.844;2023-04-15T12:21:43;30.70;;;19.35;;
20890;SDS011;10605;52.968;8.844;2023-04-15T12:24:11;30.35;;;19.90;;
20890;SDS011;10605;52.968;8.844;2023-04-15T12:29:07;31.17;;;21.00;;
20890;SDS011;10605;52.968;8.844;2023-04-15T12:31:33;36.80;;;22.35;;
20890;SDS011;10605;52.968;8.844;2023-04-15T12:34:01;41.90;;;23.90;;
20890;SDS011;10605;52.968;8.844;2023-04-15T12:36:27;33.35;;;23.05;;
20890;SDS011;10605;52.968;8.844;2023-04-15T12:39:03;38.88;;;23.80;;
20890;SDS011;10605;52.968;8.844;2023-04-15T12:41:30;38.35;;;24.25;;
20890;SDS011;10605;52.968;8.844;2023-04-15T12:43:56;40.00;;;23.15;;
20890;SDS011;10605;52.968;8.844;2023-04-15T12:46:22;40.35;;;25.33;;
20890;SDS011;10605;52.968;8.844;2023-04-15T12:48:48;43.65;;;24.88;;
20890;SDS011;10605;52.968;8.844;2023-04-15T12:51:16;43.10;;;26.40;;
20890;SDS011;10605;52.968;8.844;2023-04-15T12:53:41;43.38;;;25.05;;
20890;SDS011;10605;52.968;8.844;2023-04-15T12:56:07;46.13;;;26.98;;
20890;SDS011;10605;52.968;8.844;2023-04-15T12:58:33;46.15;;;26.17;;
20890;SDS011;10605;52.968;8.844;2023-04-15T13:00:58;45.90;;;26.67;;
20890;SDS011;10605;52.968;8.844;2023-04-15T13:03:24;42.25;;;26.83;;
20890;SDS011;10605;52.968;8.844;2023-04-15T13:05:50;44.83;;;26.67;;
20890;SDS011;10605;52.968;8.844;2023-04-15T13:08:16;47.63;;;27.92;;
20890;SDS011;10605;52.968;8.844;2023-04-15T13:10:42;45.22;;;26.88;;
20890;SDS011;10605;52.968;8.844;2023-04-15T13:13:07;46.10;;;27.00;;
20890;SDS011;10605;52.968;8.844;2023-04-15T13:15:33;46.13;;;27.23;;
20890;SDS011;10605;52.968;8.844;2023-04-15T13:17:59;50.53;;;27.60;;
20890;SDS011;10605;52.968;8.844;2023-04-15T13:20:25;48.60;;;28.27;;
20890;SDS011;10605;52.968;8.844;2023-04-15T13:22:52;46.35;;;27.50;;
20890;SDS011;10605;52.968;8.844;2023-04-15T13:25:18;44.63;;;26.77;;
20890;SDS011;10605;52.968;8.844;2023-04-15T13:27:44;46.78;;;27.92;;
20890;SDS011;10605;52.968;8.844;2023-04-15T13:30:09;48.17;;;27.13;;
20890;SDS011;10605;52.968;8.844;2023-04-15T13:32:35;50.45;;;27.30;;
20890;SDS011;10605;52.968;8.844;2023-04-15T13:35:01;48.35;;;27.27;;
20890;SDS011;10605;52.968;8.844;2023-04-15T13:37:27;37.75;;;25.42;;
20890;SDS011;10605;52.968;8.844;2023-04-15T13:39:54;43.22;;;24.83;;
20890;SDS011;10605;52.968;8.844;2023-04-15T13:42:23;41.88;;;26.65;;
20890;SDS011;10605;52.968;8.844;2023-04-15T13:44:49;39.65;;;25.50;;
20890;SDS011;10605;52.968;8.844;2023-04-15T13:47:16;42.08;;;24.67;;
20890;SDS011;10605;52.968;8.844;2023-04-15T13:49:43;41.78;;;26.15;;
20890;SDS011;10605;52.968;8.844;2023-04-15T13:52:08;37.00;;;23.75;;
20890;SDS011;10605;52.968;8.844;2023-04-15T13:54:35;35.28;;;23.75;;
20890;SDS011;10605;52.968;8.844;2023-04-15T13:57:00;34.05;;;23.13;;
20890;SDS011;10605;52.968;8.844;2023-04-15T13:59:26;29.88;;;21.85;;
20890;SDS011;10605;52.968;8.844;2023-04-15T14:01:52;30.55;;;22.35;;
20890;SDS011;10605;52.968;8.844;2023-04-15T14:04:17;31.50;;;22.83;;
20890;SDS011;10605;52.968;8.844;2023-04-15T14:06:43;31.30;;;22.83;;
20890;SDS011;10605;52.968;8.844;2023-04-15T14:09:09;33.38;;;21.67;;
20890;SDS011;10605;52.968;8.844;2023-04-15T14:11:36;32.58;;;23.63;;
20890;SDS011;10605;52.968;8.844;2023-04-15T14:14:03;33.25;;;24.30;;
20890;SDS011;10605;52.968;8.844;2023-04-15T14:16:31;34.17;;;22.98;;
20890;SDS011;10605;52.968;8.844;2023-04-15T14:18:57;36.00;;;22.65;;
20890;SDS011;10605;52.968;8.844;2023-04-15T14:21:23;30.98;;;22.65;;
20890;SDS011;10605;52.968;8.844;2023-04-15T14:23:51;31.70;;;23.08;;
20890;SDS011;10605;52.968;8.844;2023-04-15T14:26:17;32.38;;;23.85;;
20890;SDS011;10605;52.968;8.844;2023-04-15T14:28:43;29.83;;;22.83;;
20890;SDS011;10605;52.968;8.844;2023-04-15T14:31:09;30.23;;;23.40;;
20890;SDS011;10605;52.968;8.844;2023-04-15T14:33:35;36.10;;;24.15;;
20890;SDS011;10605;52.968;8.844;2023-04-15T14:36:01;29.17;;;23.20;;
20890;SDS011;10605;52.968;8.844;2023-04-15T14:38:26;35.15;;;24.10;;
20890;SDS011;10605;52.968;8.844;2023-04-15T14:40:52;28.77;;;22.25;;
20890;SDS011;10605;52.968;8.844;2023-04-15T14:43:18;27.92;;;22.48;;
20890;SDS011;10605;52.968;8.844;2023-04-15T14:45:44;32.17;;;23.45;;
20890;SDS011;10605;52.968;8.844;2023-04-15T14:48:10;33.25;;;23.55;;
20890;SDS011;10605;52.968;8.844;2023-04-15T14:50:36;29.08;;;22.85;;
20890;SDS011;10605;52.968;8.844;2023-04-15T14:53:02;31.65;;;23.67;;
20890;SDS011;10605;52.968;8.844;2023-04-15T14:55:28;34.05;;;24.58;;
20890;SDS011;10605;52.968;8.844;2023-04-15T14:57:54;33.60;;;24.58;;